Dati Storici

Data ora Umidita' aria (%) Temperatura aria (°C) Rad globale (W/m²) Gonioanemometro (°) Tacoanemometro (m/s) Pioggia (mm)
04-07-2020 05:30 75.4 % 20.488 -77.189 1.357 0 0
04-07-2020 05:20 76.2 % 20.289 -78.362 1.89 0 0
04-07-2020 05:10 76.8 % 20.254 -76.453 2.273 0 0
04-07-2020 05:00 76.9 % 20.23 -72.952 2.009 0 0
04-07-2020 04:50 77.2 % 20.143 -77.514 1.787 0 0
04-07-2020 04:40 76.4 % 20.107 -74.596 1.209 0 0
04-07-2020 04:30 75.2 % 20.259 -79.322 1.025 0 0
04-07-2020 04:20 75 % 20.35 -76.909 1.698 0 0
04-07-2020 04:10 76 % 20.276 -78.907 1.468 0 0
04-07-2020 04:00 76.8 % 20.121 -76.325 1.87 0 0
04-07-2020 03:50 77.1 % 20.081 -77.21 2.409 0 0
04-07-2020 03:40 76.9 % 20.053 -70.688 0.741 0 0
04-07-2020 03:30 76.5 % 20.165 -80.126 2.116 0 0
04-07-2020 03:20 75.7 % 20.221 -78.028 2.398 0 0
04-07-2020 03:10 75 % 20.343 -77.681 2.042 0 0
04-07-2020 03:00 74.9 % 20.408 -79.538 1.142 0 0
04-07-2020 02:50 74.6 % 20.474 -77.446 1.713 0 0
04-07-2020 02:40 74.3 % 20.511 -40.59 1.026 0 0
04-07-2020 02:30 73.3 % 20.666 -78.04 2.567 0 0
04-07-2020 02:20 72.4 % 20.72 -43.69 0.995 0 0

I dati sono presentati in modo automatico a scopo informativo. In seguito a verifica i dati possono subire modifiche o essere invalidati e non riportati negli archivi definitivi.